Time;durP1;ratioP1;P1;durP2;ratioP2;P2;SDS_P1;SDS_P2;PMS_P1;PMS_P2;Temp;Humidity;BMP_temperature;BMP_pressure;BME280_temperature;BME280_humidity;BME280_pressure;Samples;Min_cycle;Max_cycle;Signal;HPM_P1;HPM_P2
2021/12/08 00:01:21;;;;;;;28.80;18.73;;;;;;;1.15;77.48;96980.84;9762971;30;20060;-78
2021/12/08 00:06:42;;;;;;;22.77;16.02;;;;;;;1.21;76.15;96973.13;9774403;30;20052;-78
2021/12/08 00:17:43;;;;;;;26.02;17.00;;;;;;;1.02;76.77;96945.28;9779326;30;20496;-78
2021/12/08 00:23:05;;;;;;;25.30;16.40;;;;;;;0.93;76.20;96941.06;9774545;30;20060;-78
2021/12/08 00:28:27;;;;;;;24.05;15.55;;;;;;;0.84;76.93;96936.84;9774243;30;20049;-78
2021/12/08 00:33:48;;;;;;;23.00;15.10;;;;;;;0.77;76.94;96932.09;9773993;30;20099;-78
2021/12/08 00:39:10;;;;;;;22.30;15.55;;;;;;;0.71;76.97;96917.06;9774175;30;20056;-78
2021/12/08 00:44:31;;;;;;;25.23;15.85;;;;;;;0.62;76.95;96921.09;9774064;30;20057;-78
2021/12/08 00:49:53;;;;;;;28.15;17.33;;;;;;;0.57;77.71;96924.72;9774022;30;20060;-78
2021/12/08 00:55:14;;;;;;;26.15;17.10;;;;;;;0.54;77.24;96920.34;9786320;30;20049;-78
2021/12/08 01:00:38;;;;;;;26.50;17.50;;;;;;;0.48;77.58;96923.28;9774266;30;20060;-79
2021/12/08 01:05:59;;;;;;;28.00;17.92;;;;;;;0.47;76.86;96926.53;9761289;30;20048;-78
2021/12/08 01:11:20;;;;;;;32.63;19.30;;;;;;;0.43;77.09;96926.19;9785385;30;20053;-78
2021/12/08 01:16:42;;;;;;;32.78;18.70;;;;;;;0.42;77.77;96924.72;9749394;30;20418;-78
2021/12/08 01:22:02;;;;;;;31.70;19.15;;;;;;;0.38;77.57;96910.59;9772640;30;20056;-78
2021/12/08 01:27:24;;;;;;;33.20;20.27;;;;;;;0.27;77.32;96893.19;9760807;30;20051;-78
2021/12/08 01:32:44;;;;;;;32.35;20.65;;;;;;;0.24;77.94;96890.81;9783998;30;20052;-78
2021/12/08 01:38:05;;;;;;;37.08;22.02;;;;;;;0.21;78.04;96892.66;9779349;30;20049;-78
2021/12/08 01:43:40;;;;;;;36.70;21.08;;;;;;;0.22;77.82;96876.91;9793297;30;20108;-78
2021/12/08 01:49:03;;;;;;;34.08;19.80;;;;;;;0.19;78.32;96865.00;9795032;30;20452;-78
2021/12/08 01:54:24;;;;;;;34.60;21.08;;;;;;;0.15;78.04;96852.91;9775076;30;20048;-78
2021/12/08 01:59:44;;;;;;;38.55;22.33;;;;;;;0.07;77.85;96841.19;9778580;30;20504;-78
2021/12/08 02:05:06;;;;;;;35.00;21.63;;;;;;;0.04;77.86;96839.53;9791772;30;20056;-78
2021/12/08 02:10:28;;;;;;;36.97;22.15;;;;;;;0.00;77.75;96823.44;9769082;30;20118;-78
2021/12/08 02:15:48;;;;;;;35.15;22.30;;;;;;;-0.03;78.57;96821.78;9789035;30;20048;-78
2021/12/08 02:21:39;;;;;;;33.15;20.15;;;;;;;-0.08;78.60;96819.94;9764568;30;20052;-78
2021/12/08 02:27:00;;;;;;;35.67;21.95;;;;;;;-0.13;78.27;96807.13;9797937;30;20052;-78
2021/12/08 02:46:43;;;;;;;37.42;21.38;;;;;;;-0.15;78.44;96793.22;9812335;30;20388;-78
2021/12/08 02:49:03;;;;;;;36.88;21.25;;;;;;;-0.26;78.13;96786.06;9816914;30;20052;-78
2021/12/08 02:54:24;;;;;;;34.65;20.75;;;;;;;-0.27;78.65;96786.63;9799929;30;20048;-78
2021/12/08 02:59:45;;;;;;;37.13;21.63;;;;;;;-0.28;78.27;96774.19;9787442;30;20064;-78
2021/12/08 03:05:07;;;;;;;39.38;22.08;;;;;;;-0.37;78.73;96781.66;9811699;30;20404;-79
2021/12/08 03:10:30;;;;;;;30.70;19.33;;;;;;;-0.39;78.50;96775.97;9811496;30;20459;-78
2021/12/08 03:15:51;;;;;;;32.05;18.50;;;;;;;-0.45;78.67;96783.63;9799366;30;20113;-78
2021/12/08 03:21:13;;;;;;;23.50;15.65;;;;;;;-0.45;78.32;96788.41;9811239;30;20442;-78
2021/12/08 03:26:36;;;;;;;24.88;15.98;;;;;;;-0.45;78.62;96777.44;9793295;30;20454;-78
2021/12/08 03:32:04;;;;;;;20.77;14.32;;;;;;;-0.45;78.48;96767.19;9780850;30;20060;-78
2021/12/08 03:37:28;;;;;;;23.40;14.80;;;;;;;-0.38;78.13;96766.50;9793871;30;20147;-78
2021/12/08 03:42:50;;;;;;;20.15;13.48;;;;;;;-0.25;77.97;96759.38;9788558;30;20078;-78
2021/12/08 03:48:14;;;;;;;23.20;14.55;;;;;;;-0.13;78.04;96752.25;9792357;30;20056;-78
2021/12/08 03:53:35;;;;;;;23.52;15.48;;;;;;;0.10;77.65;96761.25;9781966;30;20049;-78
2021/12/08 03:58:57;;;;;;;23.10;14.80;;;;;;;0.21;77.66;96752.66;9805928;30;20048;-78
2021/12/08 04:04:18;;;;;;;24.75;15.77;;;;;;;0.24;77.43;96740.56;9796220;30;20056;-78
2021/12/08 04:09:43;;;;;;;22.65;14.90;;;;;;;0.26;76.86;96738.00;9776353;30;20087;-78
2021/12/08 04:15:05;;;;;;;22.27;13.88;;;;;;;0.26;77.00;96742.78;9801683;30;20495;-78
2021/12/08 04:20:30;;;;;;;26.90;15.38;;;;;;;0.32;76.65;96732.34;9789029;30;20060;-78
2021/12/08 04:25:52;;;;;;;27.90;14.63;;;;;;;0.35;76.98;96755.94;9802254;30;20385;-78
2021/12/08 04:31:25;;;;;;;21.60;12.77;;;;;;;0.43;76.10;96745.69;9808818;30;20047;-78
2021/12/08 04:36:48;;;;;;;21.92;13.23;;;;;;;0.39;75.71;96734.34;9809223;30;20060;-78
2021/12/08 04:42:14;;;;;;;22.52;14.23;;;;;;;0.36;75.92;96734.72;9796527;30;20052;-78
2021/12/08 04:47:46;;;;;;;21.77;13.60;;;;;;;0.46;75.76;96730.13;9809567;30;20052;-78
2021/12/08 05:09:57;;;;;;;19.80;12.10;;;;;;;0.47;75.39;96739.81;9808930;30;20059;-78
2021/12/08 05:15:29;;;;;;;16.98;11.68;;;;;;;0.54;74.87;96736.34;9795810;30;20496;-78
2021/12/08 05:21:12;;;;;;;19.05;12.18;;;;;;;0.60;74.64;96742.38;9807364;30;20085;-79
2021/12/08 05:26:35;;;;;;;16.73;10.32;;;;;;;0.69;74.98;96755.56;9793040;30;20113;-78
2021/12/08 05:31:58;;;;;;;16.50;11.15;;;;;;;0.70;74.19;96751.53;9803411;30;20056;-78
2021/12/08 05:37:21;;;;;;;17.45;11.75;;;;;;;0.67;73.95;96741.63;9789987;30;20048;-78
2021/12/08 05:42:42;;;;;;;15.98;10.27;;;;;;;0.67;74.63;96744.38;9789081;30;20048;-79
2021/12/08 05:48:03;;;;;;;18.80;11.00;;;;;;;0.47;74.71;96748.78;9774812;30;20135;-78
2021/12/08 05:53:26;;;;;;;15.52;10.13;;;;;;;0.23;75.04;96747.34;9784041;30;20041;-78
2021/12/08 05:58:51;;;;;;;16.60;10.70;;;;;;;0.07;74.87;96737.63;9788499;30;20072;-78
2021/12/08 06:04:12;;;;;;;16.30;10.68;;;;;;;-0.08;75.44;96741.13;9775567;30;20114;-78
2021/12/08 06:09:35;;;;;;;15.85;10.20;;;;;;;-0.10;76.04;96756.66;9793395;30;20070;-77
2021/12/08 06:15:00;;;;;;;15.30;10.00;;;;;;;-0.10;76.01;96762.13;9815303;30;20045;-78
2021/12/08 06:20:33;;;;;;;15.13;10.13;;;;;;;-0.12;75.88;96746.22;9799701;30;20092;-78
2021/12/08 06:25:55;;;;;;;19.40;10.45;;;;;;;-0.14;76.13;96748.78;9793865;30;20082;-78
2021/12/08 06:31:16;;;;;;;20.38;12.32;;;;;;;-0.15;76.33;96765.78;9805878;30;20040;-78
2021/12/08 06:36:45;;;;;;;20.42;13.23;;;;;;;-0.21;76.84;96765.97;9800296;30;20048;-79
2021/12/08 06:42:16;;;;;;;20.73;13.20;;;;;;;-0.26;76.60;96758.66;9796281;30;20043;-78
2021/12/08 06:47:38;;;;;;;26.05;14.73;;;;;;;-0.29;76.51;96754.22;9782916;30;20044;-78
2021/12/08 06:52:59;;;;;;;29.65;16.50;;;;;;;-0.30;76.29;96756.25;9784067;30;20169;-78
2021/12/08 06:58:27;;;;;;;27.80;16.73;;;;;;;-0.19;76.92;96754.44;9787702;30;20071;-78
2021/12/08 07:09:39;;;;;;;26.02;16.05;;;;;;;0.27;76.95;96775.16;9777602;30;20069;-78
2021/12/08 07:15:08;;;;;;;30.23;18.23;;;;;;;1.48;74.83;96785.75;9774847;30;20489;-78
2021/12/08 07:20:45;;;;;;;30.75;18.95;;;;;;;1.82;73.41;96779.69;9789376;30;20052;-78
2021/12/08 07:26:10;;;;;;;28.40;18.67;;;;;;;1.48;73.97;96780.25;9765630;30;20067;-78
2021/12/08 07:31:46;;;;;;;30.33;18.55;;;;;;;1.39;74.06;96765.06;9782133;30;20069;-78
2021/12/08 07:37:14;;;;;;;26.55;17.75;;;;;;;1.36;73.77;96763.44;9809820;30;20114;-78
2021/12/08 07:42:49;;;;;;;28.15;18.40;;;;;;;1.32;73.74;96752.78;9810776;30;20048;-78
2021/12/08 07:48:20;;;;;;;34.72;20.08;;;;;;;1.54;72.41;96745.00;9787888;30;20093;-79
2021/12/08 07:53:41;;;;;;;30.85;19.13;;;;;;;2.01;71.59;96742.13;9801387;30;20086;-80
2021/12/08 07:59:04;;;;;;;31.05;20.17;;;;;;;3.09;70.00;96731.63;9764341;30;20059;-80
2021/12/08 08:04:28;;;;;;;31.05;20.52;;;;;;;4.23;65.93;96723.06;9762922;30;20147;-78
2021/12/08 08:09:59;;;;;;;35.22;20.00;;;;;;;4.68;64.23;96720.84;9817751;30;20118;-78
2021/12/08 08:15:24;;;;;;;29.55;20.27;;;;;;;3.88;63.24;96723.25;9813046;30;20052;-78
2021/12/08 08:20:49;;;;;;;;;;;;;;;2.86;64.67;96720.09;9812258;30;20048;-78
2021/12/08 08:26:13;;;;;;;27.40;17.75;;;;;;;2.32;67.72;96719.13;9828930;30;19956;-78
2021/12/08 08:31:41;;;;;;;32.30;18.20;;;;;;;2.03;68.04;96724.31;9781045;30;20398;-78
2021/12/08 08:37:04;;;;;;;28.75;17.05;;;;;;;1.72;68.35;96710.78;9763223;30;20539;-78
2021/12/08 08:42:34;;;;;;;31.33;19.20;;;;;;;1.81;68.81;96712.91;9776712;30;20128;-78
2021/12/08 08:48:02;;;;;;;31.52;20.00;;;;;;;2.91;67.11;96705.34;9807258;30;20407;-78
2021/12/08 08:53:29;;;;;;;30.38;20.20;;;;;;;6.52;59.30;96701.81;9774522;30;20045;-78
2021/12/08 08:58:55;;;;;;;32.72;20.98;;;;;;;9.09;56.88;96707.84;9762450;30;20170;-78
2021/12/08 09:04:32;;;;;;;32.30;20.10;;;;;;;9.02;49.96;96700.47;9762983;30;20117;-78
2021/12/08 09:09:57;;;;;;;30.88;19.92;;;;;;;5.82;54.58;96707.50;9775976;30;20053;-81
2021/12/08 09:15:28;;;;;;;27.30;18.20;;;;;;;4.06;59.74;96699.06;9773787;30;20060;-78
2021/12/08 09:21:00;;;;;;;30.25;19.48;;;;;;;2.88;60.89;96692.69;9774208;30;20060;-78
2021/12/08 09:26:21;;;;;;;36.40;19.77;;;;;;;2.45;61.70;96688.56;9773069;30;20056;-78
2021/12/08 09:32:07;;;;;;;33.45;20.08;;;;;;;2.72;62.04;96683.16;9784992;30;20060;-78
2021/12/08 09:37:33;;;;;;;31.02;20.67;;;;;;;3.35;61.29;96668.78;9764047;30;20057;-78
2021/12/08 09:42:58;;;;;;;34.17;21.13;;;;;;;2.73;60.81;96673.59;9780424;30;20049;-78
2021/12/08 09:48:26;;;;;;;33.22;20.05;;;;;;;2.14;61.48;96677.09;9768473;30;20124;-78
2021/12/08 09:53:51;;;;;;;33.03;20.05;;;;;;;1.85;62.49;96674.03;9781197;30;20059;-78
2021/12/08 09:59:13;;;;;;;34.85;20.42;;;;;;;1.98;62.90;96655.19;9768913;30;20064;-78
2021/12/08 10:04:35;;;;;;;34.05;20.65;;;;;;;2.39;62.04;96658.47;9803835;30;20049;-78
2021/12/08 10:10:11;;;;;;;35.28;21.30;;;;;;;2.53;61.55;96651.38;9792599;30;20049;-78
2021/12/08 10:15:33;;;;;;;35.08;20.20;;;;;;;2.53;61.16;96653.41;9791674;30;20072;-78
2021/12/08 10:20:59;;;;;;;35.20;20.02;;;;;;;2.21;61.94;96640.47;9779217;30;20131;-78
2021/12/08 10:26:32;;;;;;;35.47;21.03;;;;;;;1.83;62.20;96625.03;9782050;30;20102;-78
2021/12/08 10:31:55;;;;;;;34.53;21.40;;;;;;;1.55;63.09;96615.19;9779143;30;20053;-78
2021/12/08 10:37:27;;;;;;;34.38;20.05;;;;;;;1.55;62.86;96608.94;9791351;30;20049;-78
2021/12/08 10:42:52;;;;;;;34.13;20.58;;;;;;;1.67;63.22;96615.44;9791667;30;20479;-78
2021/12/08 10:48:32;;;;;;;34.58;19.95;;;;;;;1.80;63.40;96617.19;9778935;30;20083;-78
2021/12/08 11:00:11;;;;;;;33.67;19.83;;;;;;;2.16;62.91;96602.91;9802216;30;20423;-78
2021/12/08 11:05:46;;;;;;;35.03;19.38;;;;;;;2.15;62.95;96595.94;9778393;30;20488;-78
2021/12/08 11:11:18;;;;;;;32.63;19.40;;;;;;;2.03;63.01;96590.19;9790387;30;20161;-78
2021/12/08 11:16:42;;;;;;;32.08;17.80;;;;;;;1.88;62.64;96582.81;9778115;30;20402;-78
2021/12/08 11:22:13;;;;;;;30.90;18.85;;;;;;;1.72;63.20;96578.72;9768583;30;20076;-78
2021/12/08 11:27:38;;;;;;;35.65;20.33;;;;;;;1.48;63.21;96582.94;9777158;30;20045;-78
2021/12/08 11:33:18;;;;;;;32.50;18.63;;;;;;;1.40;63.87;96577.50;9777155;30;20049;-78
2021/12/08 11:38:45;;;;;;;33.42;18.02;;;;;;;1.48;63.53;96560.22;9777029;30;20067;-78
2021/12/08 11:44:20;;;;;;;30.88;18.80;;;;;;;1.39;63.52;96561.56;9777633;30;20048;-78
2021/12/08 11:49:56;;;;;;;33.40;18.67;;;;;;;1.32;64.12;96560.31;9777760;30;20066;-78
2021/12/08 11:55:20;;;;;;;31.40;17.48;;;;;;;1.35;64.01;96559.22;9764245;30;20055;-78
2021/12/08 12:00:48;;;;;;;34.88;18.95;;;;;;;1.18;63.70;96555.69;9763726;30;20139;-77
2021/12/08 12:06:11;;;;;;;38.90;19.08;;;;;;;1.10;63.36;96545.47;9775892;30;20052;-77
2021/12/08 12:11:35;;;;;;;34.67;20.10;;;;;;;1.11;63.86;96552.41;9785435;30;20049;-79
2021/12/08 12:17:00;;;;;;;33.78;19.13;;;;;;;0.63;64.26;96551.03;9802510;30;20049;-80
2021/12/08 12:22:39;;;;;;;35.83;19.40;;;;;;;0.49;65.35;96539.56;9812571;30;20080;-81
2021/12/08 12:28:03;;;;;;;30.88;18.27;;;;;;;0.64;64.87;96536.75;9784960;30;20052;-76
2021/12/08 12:33:26;;;;;;;35.00;19.13;;;;;;;0.53;65.61;96554.38;9820270;30;20136;-80
2021/12/08 12:38:48;;;;;;;36.55;19.52;;;;;;;0.57;65.25;96543.72;9800139;30;20057;-77
2021/12/08 12:44:23;;;;;;;32.50;17.85;;;;;;;0.54;65.06;96542.09;9790123;30;20055;-78
2021/12/08 12:50:09;;;;;;;34.30;18.90;;;;;;;0.57;65.73;96538.22;9779556;30;20052;-74
2021/12/08 12:55:32;;;;;;;28.48;17.13;;;;;;;0.71;65.61;96535.97;9785118;30;20131;-75
2021/12/08 13:01:09;;;;;;;33.53;18.55;;;;;;;0.79;65.33;96533.94;9810058;30;20056;-76
2021/12/08 13:06:43;;;;;;;35.92;19.17;;;;;;;0.85;65.27;96523.44;9810780;30;20108;-77
2021/12/08 13:12:12;;;;;;;32.30;17.63;;;;;;;0.92;65.59;96524.69;9809832;30;20044;-75
2021/12/08 13:17:37;;;;;;;32.97;17.98;;;;;;;0.88;65.21;96524.34;9811625;30;20619;-76
2021/12/08 13:23:01;;;;;;;31.00;17.52;;;;;;;0.81;65.33;96522.38;9799305;30;20412;-77
2021/12/08 13:28:32;;;;;;;34.92;18.65;;;;;;;0.85;65.06;96515.19;9809862;30;20484;-77
2021/12/08 13:33:59;;;;;;;33.72;19.40;;;;;;;0.78;65.53;96520.75;9810262;30;20457;-77
2021/12/08 13:40:36;;;;;;;34.22;18.73;;;;;;;0.76;65.64;96513.06;9785543;30;20101;-77
2021/12/08 13:45:59;;;;;;;32.08;18.40;;;;;;;0.80;65.73;96505.16;9825351;30;20045;-77
2021/12/08 13:52:06;;;;;;;36.72;19.83;;;;;;;0.74;66.00;96510.13;9813230;30;20057;-77
2021/12/08 13:57:37;;;;;;;36.03;19.95;;;;;;;0.75;65.97;96505.38;9835508;30;20048;-77
2021/12/08 14:03:03;;;;;;;33.50;19.00;;;;;;;0.74;66.07;96488.16;9809058;30;20061;-79
2021/12/08 14:08:29;;;;;;;39.40;21.35;;;;;;;0.72;66.06;96477.00;9824825;30;20059;-78
2021/12/08 14:13:51;;;;;;;42.28;22.35;;;;;;;0.66;66.14;96462.75;9808387;30;20052;-78
2021/12/08 14:19:12;;;;;;;45.50;21.85;;;;;;;0.60;65.95;96465.00;9809875;30;20060;-80
2021/12/08 14:24:40;;;;;;;44.03;23.40;;;;;;;0.54;65.79;96478.22;9809947;30;20044;-79
2021/12/08 14:30:01;;;;;;;44.95;22.17;;;;;;;0.45;66.44;96478.81;9815868;30;20081;-80
2021/12/08 14:35:22;;;;;;;39.67;21.88;;;;;;;0.44;66.61;96472.59;9815271;30;20083;-81
2021/12/08 14:41:23;;;;;;;46.00;22.13;;;;;;;0.43;66.70;96481.38;9820162;30;20055;-78
2021/12/08 14:46:46;;;;;;;44.15;22.58;;;;;;;0.42;67.21;96464.19;9826880;30;20110;-77
2021/12/08 14:52:09;;;;;;;40.10;21.33;;;;;;;0.44;67.03;96460.88;9802496;30;20045;-78
2021/12/08 14:57:41;;;;;;;46.22;22.60;;;;;;;0.39;66.97;96459.09;9816210;30;20056;-78
2021/12/08 15:03:37;;;;;;;41.47;21.80;;;;;;;0.37;67.55;96464.38;9821694;30;20111;-78
2021/12/08 15:10:27;;;;;;;49.47;24.60;;;;;;;0.20;67.16;96437.59;9762681;30;20089;-78
2021/12/08 15:15:56;;;;;;;45.10;22.13;;;;;;;0.13;67.31;96436.34;9751947;30;20061;-78
2021/12/08 15:21:25;;;;;;;45.97;24.23;;;;;;;0.09;67.47;96438.72;9751948;30;20528;-78
2021/12/08 15:26:46;;;;;;;49.33;23.88;;;;;;;0.05;68.31;96432.16;9752029;30;20057;-78
2021/12/08 15:32:16;;;;;;;45.20;23.77;;;;;;;0.06;68.43;96406.91;9739109;30;20072;-78
2021/12/08 15:37:55;;;;;;;44.53;23.13;;;;;;;0.05;68.60;96434.91;9775907;30;20154;-78
2021/12/08 15:43:17;;;;;;;54.65;24.77;;;;;;;0.01;68.89;96445.53;9812701;30;20102;-79
2021/12/08 15:48:42;;;;;;;42.70;22.50;;;;;;;-0.04;68.99;96436.22;9814527;30;20048;-78
2021/12/08 15:54:03;;;;;;;45.57;22.83;;;;;;;-0.03;68.74;96415.72;9813125;30;20429;-78
2021/12/08 15:59:50;;;;;;;46.05;23.13;;;;;;;-0.07;68.79;96423.63;9806134;30;20059;-78
2021/12/08 16:05:17;;;;;;;47.55;23.77;;;;;;;-0.07;69.04;96442.81;10185696;24;20048;-80
2021/12/08 16:10:43;;;;;;;46.58;23.77;;;;;;;-0.07;69.47;96446.31;9785402;30;20481;-79
2021/12/08 16:16:06;;;;;;;43.65;23.55;;;;;;;0.01;69.76;96460.00;9785173;30;20064;-83
2021/12/08 16:21:27;;;;;;;49.58;23.67;;;;;;;0.03;69.68;96454.69;9833574;30;20044;-79
2021/12/08 16:26:55;;;;;;;46.95;24.20;;;;;;;0.11;69.90;96471.13;9807117;30;20076;-79
2021/12/08 16:32:18;;;;;;;42.45;22.05;;;;;;;0.15;69.35;96468.72;9823777;30;20055;-80
2021/12/08 16:37:39;;;;;;;41.35;21.55;;;;;;;0.17;69.51;96455.16;9815806;30;20048;-80
2021/12/08 16:55:31;;;;;;;42.43;21.70;;;;;;;0.40;69.26;96413.88;10158379;24;20090;-81
2021/12/08 17:00:52;;;;;;;39.30;21.58;;;;;;;0.43;69.04;96438.19;9842443;30;20060;-81
2021/12/08 17:06:14;;;;;;;45.35;21.40;;;;;;;0.49;68.89;96422.25;9842281;30;20503;-83
2021/12/08 17:11:36;;;;;;;41.92;21.92;;;;;;;0.60;68.87;96407.34;9831332;30;20579;-82
2021/12/08 17:16:57;;;;;;;44.38;22.17;;;;;;;0.64;69.61;96406.94;9852345;30;20094;-82
2021/12/08 17:22:18;;;;;;;45.15;23.48;;;;;;;0.72;69.39;96424.81;9838351;30;20552;-82
2021/12/08 17:27:39;;;;;;;51.25;24.35;;;;;;;0.81;69.50;96418.72;9831964;30;20105;-82
2021/12/08 17:32:59;;;;;;;43.28;23.48;;;;;;;0.85;69.50;96410.78;9836074;30;20059;-82
2021/12/08 17:38:20;;;;;;;47.70;23.77;;;;;;;0.87;69.49;96434.97;9835962;30;20044;-82
2021/12/08 17:43:41;;;;;;;45.97;24.73;;;;;;;0.85;69.44;96438.28;9848275;30;20060;-82
2021/12/08 17:49:21;;;;;;;47.55;23.67;;;;;;;0.86;69.06;96450.72;9834895;30;20400;-81
2021/12/08 17:54:41;;;;;;;42.65;22.35;;;;;;;0.90;69.22;96457.84;9831182;30;20121;-81
2021/12/08 18:00:07;;;;;;;40.85;22.08;;;;;;;0.93;68.67;96448.47;9840137;30;20101;-84
2021/12/08 18:05:32;;;;;;;38.28;21.70;;;;;;;0.91;68.59;96415.34;9965621;24;20115;-84
2021/12/08 18:10:54;;;;;;;39.90;21.25;;;;;;;0.88;68.76;96436.44;9853574;30;20103;-82
2021/12/08 18:16:18;;;;;;;39.05;21.65;;;;;;;0.88;68.65;96428.19;9843964;30;20079;-80
2021/12/08 18:21:39;;;;;;;42.33;21.42;;;;;;;0.89;69.30;96421.41;9817485;30;20041;-78
2021/12/08 18:27:00;;;;;;;42.83;22.50;;;;;;;0.95;69.16;96388.91;9815088;30;20048;-78
2021/12/08 18:32:23;;;;;;;41.38;21.58;;;;;;;0.96;69.27;96419.88;9814572;30;20048;-77
2021/12/08 18:37:45;;;;;;;41.88;21.52;;;;;;;1.00;68.96;96442.94;9815538;30;20131;-78
2021/12/08 18:43:06;;;;;;;40.60;20.65;;;;;;;1.01;69.14;96438.16;9814604;30;20110;-78
2021/12/08 18:48:29;;;;;;;39.80;21.73;;;;;;;1.01;69.16;96455.38;9814266;30;20048;-77
2021/12/08 18:53:53;;;;;;;40.88;21.98;;;;;;;1.10;68.90;96462.28;9814705;30;20117;-78
2021/12/08 18:59:18;;;;;;;44.17;22.58;;;;;;;1.15;69.22;96453.06;9813973;30;20056;-77
2021/12/08 19:04:39;;;;;;;40.13;21.15;;;;;;;1.16;69.56;96460.03;9814221;30;20068;-77
2021/12/08 19:10:00;;;;;;;40.10;21.70;;;;;;;1.18;69.34;96440.97;9825515;30;20551;-77
2021/12/08 19:15:21;;;;;;;38.88;21.55;;;;;;;1.17;68.69;96428.50;9830456;30;20403;-77
2021/12/08 19:20:43;;;;;;;41.25;20.75;;;;;;;1.17;68.77;96428.50;9849850;30;20055;-78
2021/12/08 19:26:05;;;;;;;37.10;21.23;;;;;;;1.11;68.66;96428.00;9849483;30;20588;-77
2021/12/08 19:31:26;;;;;;;34.33;20.00;;;;;;;1.01;68.45;96435.41;9849873;30;20044;-78
2021/12/08 19:36:47;;;;;;;36.25;19.58;;;;;;;0.97;68.64;96426.84;9861941;30;20052;-78
2021/12/08 19:42:08;;;;;;;36.05;19.83;;;;;;;0.94;68.79;96422.47;9861287;30;20047;-78
2021/12/08 19:47:29;;;;;;;36.75;20.92;;;;;;;0.99;68.96;96422.25;9861825;30;20399;-78
2021/12/08 19:52:50;;;;;;;39.00;21.13;;;;;;;1.00;68.98;96406.47;9859560;30;20074;-78
2021/12/08 19:58:11;;;;;;;37.55;20.08;;;;;;;1.01;68.77;96399.69;9844147;30;20132;-79
2021/12/08 20:03:34;;;;;;;36.58;20.35;;;;;;;0.96;68.52;96390.38;9861634;30;20048;-78
2021/12/08 20:08:54;;;;;;;38.17;19.88;;;;;;;0.99;68.62;96399.53;9811806;30;20055;-78
2021/12/08 20:14:15;;;;;;;32.25;19.00;;;;;;;1.01;68.71;96394.19;9811990;30;20044;-78
2021/12/08 20:19:36;;;;;;;30.88;18.58;;;;;;;1.03;68.87;96410.84;9836244;30;20048;-78
2021/12/08 20:25:00;;;;;;;36.47;19.60;;;;;;;1.05;68.48;96427.50;9812234;30;20048;-77
2021/12/08 20:30:22;;;;;;;34.05;19.50;;;;;;;1.09;68.74;96458.06;9823369;30;20076;-77
2021/12/08 20:35:43;;;;;;;38.75;20.08;;;;;;;1.09;68.53;96438.84;9859460;30;20071;-77
2021/12/08 20:41:06;;;;;;;36.47;19.52;;;;;;;1.05;67.99;96425.47;9846784;30;20059;-77
2021/12/08 20:46:26;;;;;;;32.55;18.98;;;;;;;1.05;68.45;96428.22;9847445;30;20051;-77
2021/12/08 20:51:47;;;;;;;36.50;20.23;;;;;;;1.01;68.37;96427.16;9843972;30;20044;-77
2021/12/08 20:57:10;;;;;;;29.20;18.23;;;;;;;1.03;68.20;96430.09;9844703;30;20381;-78
2021/12/08 21:02:34;;;;;;;33.30;18.95;;;;;;;1.10;68.16;96432.03;9845093;30;20052;-77
2021/12/08 21:07:59;;;;;;;32.20;17.95;;;;;;;1.17;68.10;96428.50;9877366;30;20086;-77
2021/12/08 21:13:20;;;;;;;33.90;18.70;;;;;;;1.24;68.33;96435.22;9894616;30;20407;-77
2021/12/08 21:18:42;;;;;;;31.15;18.55;;;;;;;1.26;68.12;96435.41;9894995;30;20125;-77
2021/12/08 21:24:03;;;;;;;32.13;18.10;;;;;;;1.17;67.77;96434.00;9894942;30;20043;-77
2021/12/08 21:29:25;;;;;;;32.58;18.85;;;;;;;1.12;68.11;96424.69;9882622;30;20074;-77
2021/12/08 21:34:49;;;;;;;33.45;18.95;;;;;;;1.17;68.27;96423.00;9881858;30;20104;-77
2021/12/08 21:40:14;;;;;;;32.45;17.83;;;;;;;1.22;68.46;96430.28;9895760;30;20047;-77
2021/12/08 21:45:34;;;;;;;34.40;18.98;;;;;;;1.23;67.74;96439.97;9882015;30;20105;-77
2021/12/08 21:50:56;;;;;;;33.63;18.92;;;;;;;1.27;68.42;96445.81;9894607;30;20043;-77
2021/12/08 21:56:17;;;;;;;34.45;18.85;;;;;;;1.28;68.33;96444.53;9882326;30;20051;-77
2021/12/08 22:01:38;;;;;;;33.95;19.63;;;;;;;1.33;67.93;96429.81;9881905;30;20100;-77
2021/12/08 22:07:00;;;;;;;38.00;20.08;;;;;;;1.37;68.38;96432.19;9881643;30;20059;-77
2021/12/08 22:12:22;;;;;;;33.17;17.77;;;;;;;1.41;68.19;96407.75;9881942;30;20134;-77
2021/12/08 22:17:43;;;;;;;30.58;18.13;;;;;;;1.41;67.97;96419.47;9881721;30;20054;-77
2021/12/08 22:23:04;;;;;;;30.15;17.55;;;;;;;1.43;68.17;96399.66;9881547;30;20058;-77
2021/12/08 22:28:25;;;;;;;31.90;17.85;;;;;;;1.37;68.09;96396.44;9893918;30;20107;-77
2021/12/08 22:33:47;;;;;;;30.98;18.65;;;;;;;1.30;67.74;96403.44;9893849;30;20047;-77
2021/12/08 22:39:09;;;;;;;32.72;18.83;;;;;;;1.29;67.95;96374.50;9881914;30;20055;-78
2021/12/08 22:44:38;;;;;;;31.70;18.02;;;;;;;1.29;68.34;96371.75;9882396;29;20089;-77
2021/12/08 22:49:59;;;;;;;34.80;19.58;;;;;;;1.23;67.87;96368.50;9886847;30;20061;-77
2021/12/08 22:55:20;;;;;;;30.88;17.95;;;;;;;1.22;68.16;96361.56;9887583;30;20534;-77
2021/12/08 23:00:57;;;;;;;30.90;17.60;;;;;;;1.21;68.07;96362.13;9887298;30;20043;-77
2021/12/08 23:06:17;;;;;;;30.50;16.80;;;;;;;1.15;68.10;96368.56;9887601;30;20075;-77
2021/12/08 23:11:41;;;;;;;33.95;18.38;;;;;;;1.10;68.07;96364.06;9899080;30;20050;-77
2021/12/08 23:17:03;;;;;;;31.07;18.33;;;;;;;1.16;68.27;96363.84;9887643;30;20092;-77
2021/12/08 23:22:24;;;;;;;28.90;17.20;;;;;;;1.18;68.54;96364.00;9874578;30;20376;-77
2021/12/08 23:27:45;;;;;;;30.15;18.75;;;;;;;1.17;67.50;96368.03;9886233;30;20055;-77
2021/12/08 23:33:06;;;;;;;32.28;16.38;;;;;;;1.23;68.27;96370.53;9886343;30;20050;-77
2021/12/08 23:44:00;;;;;;;29.98;16.30;;;;;;;1.22;68.13;96364.31;9888515;30;20051;-77
2021/12/08 23:49:22;;;;;;;33.35;18.23;;;;;;;1.30;68.25;96361.50;9885743;30;20051;-77
2021/12/08 23:54:42;;;;;;;31.40;17.60;;;;;;;1.32;68.37;96373.38;9885363;30;20055;-77
